createdAt,value
2022-07-29T00:00:06.538Z,100914.35
2022-07-29T00:02:33.621Z,100916.46
2022-07-29T00:05:00.602Z,100909.33
2022-07-29T00:07:27.934Z,100912.68
2022-07-29T00:09:54.872Z,100914.52
2022-07-29T00:12:26.170Z,100918.23
2022-07-29T00:14:57.622Z,100920.13
2022-07-29T00:17:25.588Z,100924.27
2022-07-29T00:19:53.390Z,100923.37
2022-07-29T00:22:21.216Z,100928.02
2022-07-29T00:24:51.132Z,100926.31
2022-07-29T00:27:19.192Z,100923.31
2022-07-29T00:29:46.344Z,100924.77
2022-07-29T00:32:13.304Z,100927.48
2022-07-29T00:34:59.489Z,100927.04
2022-07-29T00:37:26.837Z,100927.09
2022-07-29T00:39:53.634Z,100921.14
2022-07-29T00:42:21.063Z,100927.69
2022-07-29T00:44:47.984Z,100920.61
2022-07-29T00:47:15.147Z,100920.34
2022-07-29T00:49:43.151Z,100911.02
2022-07-29T00:52:11.538Z,100911.48
2022-07-29T00:54:44.406Z,100912.57
2022-07-29T00:57:13.191Z,100913.74
2022-07-29T00:59:40.254Z,100916.94
2022-07-29T01:02:07.195Z,100912.65
2022-07-29T01:04:34.668Z,100912.65
2022-07-29T01:07:05.301Z,100918.84
2022-07-29T01:09:45.774Z,100918.09
2022-07-29T01:12:24.691Z,100918.29
2022-07-29T01:14:53.463Z,100916.55
2022-07-29T01:17:27.354Z,100919.75
2022-07-29T01:20:05.312Z,100912.67
2022-07-29T01:22:35.134Z,100917.36
2022-07-29T01:25:39.881Z,100923.74
2022-07-29T01:28:24.264Z,100921.95
2022-07-29T01:30:55.389Z,100921.70
2022-07-29T01:33:45.555Z,100921.88
2022-07-29T01:36:17.933Z,100921.51
2022-07-29T01:38:51.228Z,100918.60
2022-07-29T01:41:21.291Z,100920.75
2022-07-29T01:43:56.001Z,100922.20
2022-07-29T01:46:30.608Z,100924.36
2022-07-29T01:49:10.104Z,100926.39
2022-07-29T01:51:52.943Z,100926.40
2022-07-29T01:54:38.950Z,100925.10
2022-07-29T01:57:09.447Z,100926.46
2022-07-29T01:59:38.581Z,100920.73
2022-07-29T02:02:09.533Z,100918.23
2022-07-29T02:04:38.660Z,100926.45
2022-07-29T02:07:08.433Z,100926.77
2022-07-29T02:09:39.106Z,100927.61
2022-07-29T02:12:08.611Z,100929.66
2022-07-29T02:14:41.836Z,100929.19
2022-07-29T02:17:09.396Z,100925.76
2022-07-29T02:19:40.232Z,100919.05
2022-07-29T02:22:08.658Z,100923.52
2022-07-29T02:24:38.532Z,100920.66
2022-07-29T02:27:05.431Z,100916.54
2022-07-29T02:29:33.849Z,100922.39
2022-07-29T02:32:04.588Z,100920.15
2022-07-29T02:34:32.989Z,100920.97
2022-07-29T02:37:01.143Z,100922.31
2022-07-29T02:39:30.548Z,100925.09
2022-07-29T02:42:04.873Z,100917.77
2022-07-29T02:44:34.871Z,100919.10
2022-07-29T02:47:11.060Z,100917.94
2022-07-29T02:49:39.942Z,100919.02
2022-07-29T02:52:17.318Z,100919.28
2022-07-29T02:54:54.989Z,100926.53
2022-07-29T02:57:28.124Z,100925.13
2022-07-29T03:00:00.197Z,100924.67
2022-07-29T03:02:28.660Z,100927.41
2022-07-29T03:05:00.967Z,100923.94
2022-07-29T03:07:29.002Z,100926.45
2022-07-29T03:09:56.836Z,100927.70
2022-07-29T03:12:24.865Z,100928.31
2022-07-29T03:14:52.722Z,100925.80
2022-07-29T03:17:20.079Z,100926.55
2022-07-29T03:19:47.518Z,100927.70
2022-07-29T03:22:15.174Z,100929.02
2022-07-29T03:24:46.432Z,100932.78
2022-07-29T03:27:14.548Z,100931.77
2022-07-29T03:29:41.349Z,100932.90
2022-07-29T03:32:16.471Z,100933.27
2022-07-29T03:34:50.901Z,100935.90
2022-07-29T03:37:17.925Z,100935.05
2022-07-29T03:39:46.937Z,100932.20
2022-07-29T03:42:17.856Z,100928.02
2022-07-29T03:44:48.730Z,100928.19
2022-07-29T03:47:18.614Z,100925.80
2022-07-29T03:49:51.635Z,100919.23
2022-07-29T03:52:19.354Z,100920.58
2022-07-29T03:54:46.815Z,100926.52
2022-07-29T03:57:15.810Z,100923.51
2022-07-29T03:59:44.392Z,100929.75
2022-07-29T04:02:14.871Z,100932.81
2022-07-29T04:04:43.811Z,100933.25
2022-07-29T04:07:13.984Z,100932.29
2022-07-29T04:09:41.013Z,100933.32
2022-07-29T04:12:08.483Z,100931.19
2022-07-29T04:14:36.110Z,100925.52
2022-07-29T04:17:04.500Z,100927.15
2022-07-29T04:19:31.505Z,100931.90
2022-07-29T04:21:59.458Z,100930.27
2022-07-29T04:24:26.745Z,100933.28
2022-07-29T04:26:53.558Z,100930.37
2022-07-29T04:29:21.156Z,100932.38
2022-07-29T04:31:48.017Z,100928.30
2022-07-29T04:34:15.210Z,100928.80
2022-07-29T04:36:42.223Z,100937.08
2022-07-29T04:39:09.066Z,100935.63
2022-07-29T04:41:35.803Z,100935.62
2022-07-29T04:44:07.112Z,100933.27
2022-07-29T04:46:36.078Z,100933.88
2022-07-29T04:49:04.286Z,100933.10
2022-07-29T04:51:31.956Z,100933.44
2022-07-29T04:53:58.689Z,100935.84
2022-07-29T04:56:25.634Z,100937.18
2022-07-29T04:58:52.829Z,100943.32
2022-07-29T05:01:20.387Z,100940.27
2022-07-29T05:03:47.590Z,100943.10
2022-07-29T05:06:14.436Z,100944.45
2022-07-29T05:08:42.087Z,100939.79
2022-07-29T05:11:12.508Z,100941.83
2022-07-29T05:13:46.047Z,100941.55
2022-07-29T05:16:14.731Z,100947.85
2022-07-29T05:18:42.281Z,100945.67
2022-07-29T05:21:09.342Z,100949.38
2022-07-29T05:23:36.303Z,100948.02
2022-07-29T05:26:03.313Z,100948.20
2022-07-29T05:28:34.214Z,100945.73
2022-07-29T05:31:01.183Z,100949.48
2022-07-29T05:33:36.074Z,100945.48
2022-07-29T05:36:08.718Z,100946.17
2022-07-29T05:38:36.822Z,100949.15
2022-07-29T05:41:04.746Z,100951.66
2022-07-29T05:43:31.717Z,100946.77
2022-07-29T05:45:59.024Z,100947.01
2022-07-29T05:48:26.716Z,100946.28
2022-07-29T05:50:53.622Z,100945.16
2022-07-29T05:53:21.144Z,100939.38
2022-07-29T05:55:49.290Z,100931.09
2022-07-29T05:58:16.335Z,100936.91
2022-07-29T06:00:43.910Z,100936.52
2022-07-29T06:03:10.966Z,100935.39
2022-07-29T06:05:37.983Z,100939.67
2022-07-29T06:08:08.355Z,100938.52
2022-07-29T06:10:38.734Z,100937.30
2022-07-29T06:13:05.983Z,100933.02
2022-07-29T06:15:33.020Z,100936.23
2022-07-29T06:18:01.550Z,100935.09
2022-07-29T06:20:31.549Z,100930.23
2022-07-29T06:22:58.687Z,100933.66
2022-07-29T06:25:25.631Z,100930.23
2022-07-29T06:27:53.321Z,100931.23
2022-07-29T06:30:20.170Z,100930.08
2022-07-29T06:32:47.486Z,100929.09
2022-07-29T06:38:00.981Z,100924.91
2022-07-29T06:40:46.617Z,100927.61
2022-07-29T06:43:14.587Z,100930.67
2022-07-29T06:45:42.639Z,100934.30
2022-07-29T06:48:10.942Z,100936.73
2022-07-29T06:50:37.899Z,100933.76
2022-07-29T06:53:05.486Z,100936.80
2022-07-29T06:55:32.265Z,100933.63
2022-07-29T06:57:59.130Z,100931.31
2022-07-29T07:00:26.828Z,100933.10
2022-07-29T07:02:53.741Z,100929.14
2022-07-29T07:05:20.814Z,100934.12
2022-07-29T07:07:47.498Z,100933.40
2022-07-29T07:10:14.291Z,100931.27
2022-07-29T07:12:41.046Z,100932.01
2022-07-29T07:15:08.294Z,100928.81
2022-07-29T07:17:35.328Z,100931.80
2022-07-29T07:20:02.899Z,100931.43
2022-07-29T07:22:29.634Z,100930.97
2022-07-29T07:24:56.675Z,100930.19
2022-07-29T07:27:23.850Z,100925.49
2022-07-29T07:29:50.748Z,100922.06
2022-07-29T07:32:17.831Z,100927.06
2022-07-29T07:34:44.832Z,100924.46
2022-07-29T07:37:12.948Z,100927.35
2022-07-29T07:39:39.748Z,100929.30
2022-07-29T07:42:06.644Z,100926.82
2022-07-29T07:44:39.056Z,100927.25
2022-07-29T07:47:14.107Z,100926.20
2022-07-29T07:49:42.518Z,100925.60
2022-07-29T07:52:12.732Z,100925.31
2022-07-29T07:54:39.683Z,100926.95
2022-07-29T07:57:06.598Z,100928.50
2022-07-29T07:59:33.373Z,100931.08
2022-07-29T08:02:01.714Z,100928.06
2022-07-29T08:04:29.591Z,100929.70
2022-07-29T08:06:58.402Z,100933.67
2022-07-29T08:09:29.809Z,100933.71
2022-07-29T08:11:59.018Z,100930.63
2022-07-29T08:14:26.600Z,100935.14
2022-07-29T08:16:53.869Z,100924.23
2022-07-29T08:19:21.403Z,100918.98
2022-07-29T08:21:49.079Z,100919.20
2022-07-29T08:24:34.836Z,100917.33
2022-07-29T08:27:01.781Z,100915.48
2022-07-29T08:29:28.857Z,100909.40
2022-07-29T08:31:56.836Z,100906.94
2022-07-29T08:34:28.025Z,100907.99
2022-07-29T08:36:57.037Z,100909.94
2022-07-29T08:39:24.915Z,100910.80
2022-07-29T08:41:56.800Z,100909.40
2022-07-29T08:44:27.525Z,100909.55
2022-07-29T08:46:58.205Z,100908.99
2022-07-29T08:49:25.546Z,100914.98
2022-07-29T08:51:55.253Z,100914.34
2022-07-29T08:54:24.656Z,100917.19
2022-07-29T08:56:53.091Z,100917.43
2022-07-29T08:59:25.967Z,100914.16
2022-07-29T09:01:55.210Z,100911.05
2022-07-29T09:04:24.885Z,100911.71
2022-07-29T09:06:55.527Z,100908.98
2022-07-29T09:09:22.980Z,100907.16
2022-07-29T09:11:50.217Z,100903.62
2022-07-29T09:14:17.186Z,100900.90
2022-07-29T09:17:04.363Z,100896.99
2022-07-29T09:19:37.525Z,100893.39
2022-07-29T09:22:07.398Z,100896.91
2022-07-29T09:24:41.103Z,100894.91
2022-07-29T09:27:12.532Z,100897.49
2022-07-29T09:29:40.220Z,100899.91
2022-07-29T09:32:11.031Z,100902.59
2022-07-29T09:34:38.712Z,100894.75
2022-07-29T09:37:06.455Z,100887.47
2022-07-29T09:39:34.733Z,100881.58
2022-07-29T09:42:06.495Z,100881.06
2022-07-29T09:44:51.387Z,100884.15
2022-07-29T09:47:20.145Z,100883.17
2022-07-29T09:50:00.832Z,100888.73
2022-07-29T09:52:29.748Z,100882.61
2022-07-29T09:55:18.012Z,100880.48
2022-07-29T09:57:47.176Z,100875.81
2022-07-29T10:00:19.123Z,100875.13
2022-07-29T10:02:47.688Z,100880.66
2022-07-29T10:05:26.081Z,100875.95
2022-07-29T10:07:59.194Z,100876.42
2022-07-29T10:10:28.649Z,100872.27
2022-07-29T10:13:04.547Z,100865.15
2022-07-29T10:15:42.030Z,100865.00
2022-07-29T10:18:10.412Z,100860.80
2022-07-29T10:20:38.244Z,100858.02
2022-07-29T10:23:05.471Z,100858.45
2022-07-29T10:25:33.197Z,100863.32
2022-07-29T10:28:00.356Z,100859.55
2022-07-29T10:30:28.548Z,100858.60
2022-07-29T10:32:55.255Z,100854.38
2022-07-29T10:35:34.423Z,100853.36
2022-07-29T10:38:19.906Z,100854.33
2022-07-29T10:41:08.832Z,100848.61
2022-07-29T10:43:42.393Z,100848.96
2022-07-29T10:46:10.110Z,100848.02
2022-07-29T10:49:15.432Z,100850.55
2022-07-29T10:51:52.899Z,100849.73
2022-07-29T10:54:42.292Z,100849.35
2022-07-29T10:57:13.022Z,100843.60
2022-07-29T10:59:40.959Z,100842.65
2022-07-29T11:02:42.741Z,100842.05
2022-07-29T11:05:16.725Z,100841.95
2022-07-29T11:08:20.146Z,100838.21
2022-07-29T11:11:19.811Z,100831.98
2022-07-29T11:13:55.929Z,100829.02
2022-07-29T11:16:25.342Z,100832.98
2022-07-29T11:19:14.763Z,100832.77
2022-07-29T11:21:54.765Z,100829.08
2022-07-29T11:24:32.426Z,100823.41
2022-07-29T11:27:23.585Z,100824.66
2022-07-29T11:30:03.479Z,100819.48
2022-07-29T11:32:40.160Z,100821.33
2022-07-29T11:35:38.592Z,100822.36
2022-07-29T11:38:27.857Z,100817.02
2022-07-29T11:41:21.656Z,100821.16
2022-07-29T11:43:53.703Z,100818.77
2022-07-29T11:46:48.067Z,100813.59
2022-07-29T11:49:22.022Z,100815.39
2022-07-29T11:52:02.841Z,100813.96
2022-07-29T11:54:57.155Z,100814.41
2022-07-29T11:57:22.811Z,100812.79
2022-07-29T12:00:12.449Z,100810.92
2022-07-29T12:02:44.965Z,100805.66
2022-07-29T12:05:22.174Z,100806.20
2022-07-29T12:07:51.405Z,100806.63
2022-07-29T12:10:30.087Z,100797.81
2022-07-29T12:12:57.956Z,100805.40
2022-07-29T12:15:45.545Z,100807.83
2022-07-29T12:18:16.279Z,100809.49
2022-07-29T12:20:46.345Z,100805.59
2022-07-29T12:23:13.722Z,100804.46
2022-07-29T12:25:50.010Z,100803.05
2022-07-29T12:28:26.692Z,100804.19
2022-07-29T12:30:54.850Z,100806.84
2022-07-29T12:33:27.724Z,100801.03
2022-07-29T12:36:06.759Z,100794.33
2022-07-29T12:38:36.260Z,100791.07
2022-07-29T12:41:04.943Z,100790.04
2022-07-29T12:43:32.929Z,100789.06
2022-07-29T12:46:14.218Z,100793.38
2022-07-29T12:48:43.610Z,100784.67
2022-07-29T12:51:12.912Z,100784.91
2022-07-29T12:53:40.770Z,100782.36
2022-07-29T12:59:30.914Z,100791.54
2022-07-29T13:02:00.779Z,100793.31
2022-07-29T13:04:32.450Z,100790.78
2022-07-29T13:07:04.773Z,100787.70
2022-07-29T13:09:42.980Z,100787.78
2022-07-29T13:12:12.531Z,100783.61
2022-07-29T13:14:47.879Z,100775.99
2022-07-29T13:17:16.903Z,100771.16
2022-07-29T13:19:49.867Z,100768.02
2022-07-29T13:22:20.505Z,100765.48
2022-07-29T13:24:58.078Z,100770.77
2022-07-29T13:27:27.226Z,100768.12
2022-07-29T13:29:57.701Z,100768.12
2022-07-29T13:32:27.777Z,100766.86
2022-07-29T13:35:01.752Z,100763.08
2022-07-29T13:37:35.232Z,100758.66
2022-07-29T13:40:04.608Z,100749.76
2022-07-29T13:42:33.264Z,100753.59
2022-07-29T13:45:01.087Z,100752.13
2022-07-29T13:47:32.467Z,100750.73
2022-07-29T13:50:06.202Z,100748.89
2022-07-29T13:52:34.828Z,100751.03
2022-07-29T13:55:02.310Z,100752.31
2022-07-29T13:57:30.314Z,100747.98
2022-07-29T13:59:58.187Z,100739.33
2022-07-29T14:02:25.714Z,100734.12
2022-07-29T14:04:55.053Z,100740.72
2022-07-29T14:07:22.842Z,100738.52
2022-07-29T14:09:49.871Z,100744.13
2022-07-29T14:12:16.663Z,100743.92
2022-07-29T14:14:43.692Z,100738.88
2022-07-29T14:17:10.894Z,100736.62
2022-07-29T14:19:39.237Z,100730.91
2022-07-29T14:22:08.887Z,100731.77
2022-07-29T14:24:37.615Z,100730.65
2022-07-29T14:27:06.121Z,100728.00
2022-07-29T14:29:37.114Z,100724.02
2022-07-29T14:32:06.549Z,100719.80
2022-07-29T14:34:35.007Z,100717.46
2022-07-29T14:37:02.095Z,100717.58
2022-07-29T14:39:31.771Z,100720.10
2022-07-29T14:41:59.899Z,100717.49
2022-07-29T14:44:32.330Z,100715.07
2022-07-29T14:47:01.498Z,100711.98
2022-07-29T14:49:34.809Z,100714.88
2022-07-29T14:52:01.924Z,100716.19
2022-07-29T14:54:28.926Z,100710.95
2022-07-29T14:56:58.758Z,100710.60
2022-07-29T14:59:26.691Z,100706.71
2022-07-29T15:01:53.913Z,100703.84
2022-07-29T15:04:21.694Z,100705.84
2022-07-29T15:06:48.883Z,100696.85
2022-07-29T15:09:15.824Z,100697.58
2022-07-29T15:11:42.736Z,100695.98
2022-07-29T15:14:09.575Z,100693.10
2022-07-29T15:16:38.811Z,100693.69
2022-07-29T15:19:06.150Z,100688.92
2022-07-29T15:21:33.420Z,100690.89
2022-07-29T15:24:00.629Z,100688.20
2022-07-29T15:26:27.912Z,100684.06
2022-07-29T15:28:56.685Z,100682.73
2022-07-29T15:31:23.547Z,100683.90
2022-07-29T15:33:53.289Z,100678.21
2022-07-29T15:36:50.230Z,100681.13
2022-07-29T15:39:10.247Z,100676.04
2022-07-29T15:41:37.255Z,100670.04
2022-07-29T15:44:04.273Z,100665.12
2022-07-29T15:46:49.727Z,100663.74
2022-07-29T15:49:16.679Z,100666.41
2022-07-29T15:51:43.717Z,100668.60
2022-07-29T15:54:10.564Z,100664.99
2022-07-29T15:56:37.712Z,100664.23
2022-07-29T15:59:04.668Z,100661.52
2022-07-29T16:01:31.567Z,100662.36
2022-07-29T16:03:58.925Z,100662.27
2022-07-29T16:06:25.745Z,100659.38
2022-07-29T16:08:52.540Z,100660.56
2022-07-29T16:11:19.583Z,100664.84
2022-07-29T16:13:46.449Z,100667.08
2022-07-29T16:16:13.242Z,100664.90
2022-07-29T16:18:40.145Z,100665.10
2022-07-29T16:21:06.881Z,100661.48
2022-07-29T16:23:33.573Z,100659.02
2022-07-29T16:26:01.236Z,100656.16
2022-07-29T16:28:29.754Z,100653.77
2022-07-29T16:30:57.401Z,100654.89
2022-07-29T16:33:25.095Z,100646.60
2022-07-29T16:35:53.065Z,100650.62
2022-07-29T16:38:19.959Z,100652.37
2022-07-29T16:40:47.279Z,100648.22
2022-07-29T16:43:14.184Z,100651.91
2022-07-29T16:45:45.770Z,100651.80
2022-07-29T16:48:14.544Z,100654.02
2022-07-29T16:50:43.267Z,100658.25
2022-07-29T16:53:11.087Z,100663.99
2022-07-29T16:55:38.833Z,100666.98
2022-07-29T16:58:10.016Z,100674.13
2022-07-29T17:00:36.985Z,100677.71
2022-07-29T17:03:05.604Z,100678.55
2022-07-29T17:05:50.786Z,100679.48
2022-07-29T17:08:20.379Z,100681.11
2022-07-29T17:10:47.743Z,100678.45
2022-07-29T17:13:14.987Z,100679.52
2022-07-29T17:15:43.290Z,100674.94
2022-07-29T17:18:12.186Z,100678.66
2022-07-29T17:20:41.865Z,100675.30
2022-07-29T17:23:08.916Z,100679.79
2022-07-29T17:25:35.891Z,100669.21
2022-07-29T17:28:02.802Z,100671.86
2022-07-29T17:30:30.156Z,100668.88
2022-07-29T17:32:57.512Z,100671.95
2022-07-29T17:35:43.066Z,100675.13
2022-07-29T17:38:09.963Z,100678.10
2022-07-29T17:40:37.450Z,100675.31
2022-07-29T17:43:05.086Z,100674.97
2022-07-29T17:45:49.111Z,100675.50
2022-07-29T17:48:18.811Z,100682.58
2022-07-29T17:50:47.029Z,100683.23
2022-07-29T17:53:16.180Z,100683.60
2022-07-29T17:55:48.933Z,100679.87
2022-07-29T17:58:16.637Z,100680.02
2022-07-29T18:00:44.490Z,100679.70
2022-07-29T18:03:11.718Z,100682.67
2022-07-29T18:05:38.725Z,100680.21
2022-07-29T18:08:05.581Z,100682.13
2022-07-29T18:10:32.495Z,100678.02
2022-07-29T18:12:59.242Z,100671.86
2022-07-29T18:15:25.969Z,100672.36
2022-07-29T18:17:57.529Z,100668.77
2022-07-29T18:20:26.403Z,100673.73
2022-07-29T18:22:53.528Z,100672.82
2022-07-29T18:25:21.131Z,100681.70
2022-07-29T18:27:48.061Z,100684.21
2022-07-29T18:30:17.567Z,100685.67
2022-07-29T18:32:59.158Z,100692.74
2022-07-29T18:35:32.263Z,100679.30
2022-07-29T18:38:02.111Z,100692.35
2022-07-29T18:40:30.458Z,100688.60
2022-07-29T18:42:57.293Z,100692.35
2022-07-29T18:45:28.548Z,100697.20
2022-07-29T18:47:56.727Z,100696.86
2022-07-29T18:50:29.196Z,100698.11
2022-07-29T18:52:59.005Z,100690.77
2022-07-29T18:55:26.741Z,100685.90
2022-07-29T18:57:56.669Z,100688.48
2022-07-29T19:00:25.766Z,100694.00
2022-07-29T19:02:53.295Z,100697.40
2022-07-29T19:05:21.189Z,100699.94
2022-07-29T19:07:48.131Z,100700.45
2022-07-29T19:10:15.071Z,100697.80
2022-07-29T19:12:42.765Z,100701.52
2022-07-29T19:15:10.839Z,100701.83
2022-07-29T19:17:38.886Z,100704.45
2022-07-29T19:20:07.480Z,100708.34
2022-07-29T19:22:34.955Z,100709.79
2022-07-29T19:25:01.862Z,100717.51
2022-07-29T19:27:28.659Z,100717.02
2022-07-29T19:29:58.968Z,100714.40
2022-07-29T19:32:26.507Z,100712.64
2022-07-29T19:35:12.493Z,100711.43
2022-07-29T19:37:39.314Z,100713.65
2022-07-29T19:40:07.057Z,100712.89
2022-07-29T19:42:34.234Z,100706.08
2022-07-29T19:45:00.995Z,100700.88
2022-07-29T19:47:27.875Z,100702.91
2022-07-29T19:49:54.791Z,100698.35
2022-07-29T19:52:21.844Z,100701.92
2022-07-29T19:54:48.767Z,100704.65
2022-07-29T19:57:15.683Z,100708.14
2022-07-29T19:59:43.140Z,100703.46
2022-07-29T20:02:12.661Z,100709.11
2022-07-29T20:04:40.643Z,100708.40
2022-07-29T20:07:07.763Z,100709.74
2022-07-29T20:09:34.893Z,100713.36
2022-07-29T20:12:01.869Z,100714.42
2022-07-29T20:14:29.123Z,100717.70
2022-07-29T20:16:55.971Z,100719.86
2022-07-29T20:19:22.812Z,100721.52
2022-07-29T20:21:51.701Z,100726.41
2022-07-29T20:24:19.685Z,100723.93
2022-07-29T20:26:47.559Z,100721.59
2022-07-29T20:29:14.586Z,100720.58
2022-07-29T20:31:43.506Z,100713.73
2022-07-29T20:34:10.723Z,100716.77
2022-07-29T20:36:38.009Z,100712.15
2022-07-29T20:39:05.236Z,100711.02
2022-07-29T20:41:33.926Z,100711.49
2022-07-29T20:44:02.398Z,100711.23
2022-07-29T20:46:29.760Z,100712.00
2022-07-29T20:48:57.145Z,100711.80
2022-07-29T20:51:24.568Z,100709.70
2022-07-29T20:53:51.439Z,100705.42
2022-07-29T20:56:18.400Z,100703.20
2022-07-29T20:58:45.236Z,100708.21
2022-07-29T21:01:12.194Z,100705.98
2022-07-29T21:03:39.288Z,100700.77
2022-07-29T21:06:06.444Z,100698.27
2022-07-29T21:08:33.485Z,100699.48
2022-07-29T21:11:00.448Z,100698.49
2022-07-29T21:13:27.460Z,100693.67
2022-07-29T21:15:58.838Z,100697.21
2022-07-29T21:18:32.454Z,100697.97
2022-07-29T21:21:01.037Z,100693.86
2022-07-29T21:23:28.178Z,100695.99
2022-07-29T21:25:55.127Z,100694.00
2022-07-29T21:28:37.104Z,100694.25
2022-07-29T21:31:09.830Z,100695.21
2022-07-29T21:33:37.495Z,100702.20
2022-07-29T21:36:35.414Z,100697.70
2022-07-29T21:38:51.608Z,100690.17
2022-07-29T21:41:19.273Z,100690.91
2022-07-29T21:43:46.521Z,100693.87
2022-07-29T21:46:13.357Z,100692.09
2022-07-29T21:48:44.404Z,100691.69
2022-07-29T21:51:11.865Z,100691.34
2022-07-29T21:53:38.808Z,100689.25
2022-07-29T21:56:07.659Z,100689.09
2022-07-29T21:58:41.300Z,100683.91
2022-07-29T22:01:08.376Z,100684.10
2022-07-29T22:03:35.297Z,100687.04
2022-07-29T22:06:02.340Z,100685.60
2022-07-29T22:08:29.070Z,100686.17
2022-07-29T22:10:55.805Z,100686.65
2022-07-29T22:13:22.540Z,100685.81
2022-07-29T22:15:49.417Z,100684.23
2022-07-29T22:18:20.978Z,100682.06
2022-07-29T22:20:49.860Z,100677.59
2022-07-29T22:23:16.797Z,100675.35
2022-07-29T22:25:43.738Z,100672.42
2022-07-29T22:28:10.764Z,100674.96
2022-07-29T22:30:37.774Z,100671.42
2022-07-29T22:33:04.782Z,100672.82
2022-07-29T22:35:31.621Z,100672.26
2022-07-29T22:37:58.462Z,100671.29
2022-07-29T22:40:30.749Z,100665.94
2022-07-29T22:42:59.674Z,100660.30
2022-07-29T22:45:26.622Z,100662.84
2022-07-29T22:47:59.137Z,100659.70
2022-07-29T22:50:26.704Z,100660.86
2022-07-29T22:52:53.429Z,100661.87
2022-07-29T22:55:20.598Z,100662.89
2022-07-29T22:57:47.441Z,100657.60
2022-07-29T23:00:15.160Z,100663.21
2022-07-29T23:02:42.152Z,100663.21
2022-07-29T23:05:10.422Z,100657.15
2022-07-29T23:07:37.470Z,100654.68
2022-07-29T23:10:05.051Z,100653.56
2022-07-29T23:12:31.896Z,100651.63
2022-07-29T23:14:58.816Z,100651.89
2022-07-29T23:17:25.659Z,100649.41
2022-07-29T23:19:52.640Z,100652.15
2022-07-29T23:22:19.554Z,100649.75
2022-07-29T23:24:46.512Z,100647.77
2022-07-29T23:27:13.315Z,100649.89
2022-07-29T23:29:40.592Z,100653.88
2022-07-29T23:32:07.476Z,100659.80
2022-07-29T23:34:34.313Z,100659.61
2022-07-29T23:37:01.572Z,100656.13
2022-07-29T23:39:28.596Z,100654.94
2022-07-29T23:41:55.352Z,100649.48
2022-07-29T23:44:22.169Z,100647.96
2022-07-29T23:46:49.009Z,100649.30
2022-07-29T23:49:16.308Z,100653.41
2022-07-29T23:51:43.199Z,100645.02
2022-07-29T23:54:10.054Z,100638.81
2022-07-29T23:56:36.815Z,100640.42
2022-07-29T23:59:05.854Z,100646.03
